Terminal Aerodrome Forecast
Issued by NWS Atlanta, GA

Home | Current Version | Previous Version | Text Only | Print | Product List | Glossary On
Versions: 1 2 3 4 5 6 7 8 9 10 11 12 13 14 15 16 17 18 19 20 21 22 23 24 25 26 27 28 29 30 31 32 33 34 35 36
022
FTUS42 KFFC 141735
TAFAHN
TAF
KAHN 141735Z 1418/1518 14009KT P6SM SCT150
     FM150000 11007KT P6SM BKN150
     FM150600 09007KT P6SM BKN050
     FM150800 07007KT P6SM OVC025
     FM151000 07006KT 6SM BR VCSH OVC007 PROB30 1510/1516 5SM -FZDZ
      BR OVC004
     FM151600 08006KT 4SM BR VCSH OVC004=

USA.gov is the U.S. government's official web portal to all federal, state and local government web resources and services.